Terminal Aerodrome Forecast
Issued by NWS Twin Cities, MN

Home | Current Version | Previous Version | Graphics & Text | Print | Product List | Glossary Off
Versions: 1 2 3 4 5 6 7 8 9 10 11 12 13 14 15 16 17 18 19

000
FTUS43 KMPX 300523
TAFSTC
TAF
KSTC 300523Z 3006/3106 17005KT 5SM BR SKC
     FM300800 17005KT 4SM BR SCT003 BKN008
      TEMPO 3008/3012 2SM BR OVC003
     FM301500 19010KT P6SM SCT015
     FM301700 19012G19KT P6SM SKC
     FM310000 17007KT P6SM SKC=

USA.gov is the U.S. government's official web portal to all federal, state and local government web resources and services.